Festos Palace — SYNR — position and weather

sailwx.info

Track history (hours):
 
Tides and Currents Weather Stations Pressure Air Temp Water Temp Dewpoint Dewpoint Depression Visibility Wind Speed Wind Dir Waves Ship Positions

Festos Palace

Last reported at 2018-Jun-25 15:30 UTC. Time now 2018-Jun-25 15:51 UTC.
Position N 37°57' E 023°38'.

Length 214 m; draft 6.7 m.

Type: Ship. MMSI: 237611000.

Date/timePositionNaut miles runAvg speedWind from/ knotsBaromVisibWave heightAir tempDewpointWater temp
2018-Jun-25 15:30N 37°57' E 023°38'0 0.0
2018-Jun-25 15:00N 37°57' E 023°38'0 0.0
2018-Jun-25 14:30N 37°57' E 023°38'0 0.0
2018-Jun-25 14:01N 37°57' E 023°38'0 0.0
2018-Jun-25 13:29N 37°57' E 023°38'0 0.0
2018-Jun-25 12:59N 37°57' E 023°38'0 0.0
2018-Jun-25 12:31N 37°57' E 023°38'0 0.0
2018-Jun-25 12:00N 37°57' E 023°38'0 0.0
2018-Jun-25 11:31N 37°57' E 023°38'0 0.0
2018-Jun-25 11:01N 37°57' E 023°38'0 0.0
2018-Jun-25 10:30N 37°57' E 023°38'0 0.0
2018-Jun-25 10:00N 37°57' E 023°38'0 0.0
2018-Jun-25 09:29N 37°57' E 023°38'0 0.0
2018-Jun-25 09:01N 37°57' E 023°38'0 0.0
2018-Jun-25 08:31N 37°57' E 023°38'0 0.0
2018-Jun-25 08:01N 37°57' E 023°38'0 0.0
2018-Jun-25 07:31N 37°57' E 023°38'0 0.0
2018-Jun-25 06:50N 37°57' E 023°38'0 0.0
2018-Jun-25 06:31N 37°57' E 023°38'0 0.0
2018-Jun-25 06:01N 37°57' E 023°38'0 0.0
2018-Jun-25 05:31N 37°57' E 023°38'0 0.0
2018-Jun-25 05:00N 37°57' E 023°38'0 0.0
2018-Jun-25 04:30N 37°57' E 023°38'0 0.0
2018-Jun-25 04:00N 37°57' E 023°38'0 0.0
2018-Jun-25 03:30N 37°57' E 023°38'3 7.0
2018-Jun-25 03:00N 37°53' E 023°38'1019.8
2018-Jun-25 02:30N 37°44' E 023°44'16 0.5
2018-Jun-23 19:48N 37°28' E 023°49'719.5
2018-Jun-23 19:27N 37°35' E 023°45'819.2
2018-Jun-23 19:00N 37°42' E 023°41'1019.2
2018-Jun-23 18:30N 37°51' E 023°37'510.6
2018-Jun-23 18:00N 37°57' E 023°38'0 0.0
2018-Jun-23 17:30N 37°57' E 023°38'0 0.0
2018-Jun-23 16:59N 37°57' E 023°38'0 0.0
2018-Jun-23 16:29N 37°57' E 023°38'0 0.0
2018-Jun-23 15:59N 37°57' E 023°38'0 0.0
2018-Jun-23 15:28N 37°57' E 023°38'0 0.0
2018-Jun-23 14:58N 37°57' E 023°38'0 0.0
2018-Jun-23 14:28N 37°57' E 023°38'0 0.0
2018-Jun-23 13:58N 37°57' E 023°38'0 0.0
2018-Jun-23 13:28N 37°57' E 023°38'0 0.0
2018-Jun-23 13:00N 37°57' E 023°38'0 0.0
2018-Jun-23 12:28N 37°57' E 023°38'0 0.0
2018-Jun-23 12:00N 37°57' E 023°38'0 0.0
2018-Jun-23 11:30N 37°57' E 023°38'0 0.0
2018-Jun-23 11:00N 37°57' E 023°38'0 0.0
2018-Jun-23 10:30N 37°57' E 023°38'0 0.0
2018-Jun-23 09:59N 37°57' E 023°38'0 0.0
2018-Jun-23 09:29N 37°57' E 023°38'0 0.0
2018-Jun-23 08:59N 37°57' E 023°38'0 0.0
2018-Jun-23 08:29N 37°57' E 023°38'0 0.0
2018-Jun-23 07:58N 37°57' E 023°38'0 0.0
2018-Jun-23 07:28N 37°57' E 023°38'0 0.0
2018-Jun-23 06:58N 37°57' E 023°38'0 0.0
2018-Jun-23 06:25N 37°57' E 023°38'0 0.0
2018-Jun-23 05:58N 37°57' E 023°38'0 0.0
2018-Jun-23 05:30N 37°57' E 023°38'0 0.0
2018-Jun-23 05:00N 37°57' E 023°38'0 0.0
2018-Jun-23 04:27N 37°57' E 023°38'0 0.0
2018-Jun-23 04:00N 37°57' E 023°38'0 0.2
2018-Jun-23 03:30N 37°57' E 023°38'4 8.7
2018-Jun-23 03:00N 37°52' E 023°39'1020.0
2018-Jun-23 02:30N 37°43' E 023°44'42 1.5
2018-Jun-21 21:24N 37°03' E 024°02'1020.4
2018-Jun-21 20:54N 37°12' E 023°57'820.3
2018-Jun-21 20:30N 37°20' E 023°53'1020.1
2018-Jun-21 20:01N 37°29' E 023°48'1019.9
2018-Jun-21 19:30N 37°38' E 023°43'1019.9
2018-Jun-21 19:01N 37°47' E 023°37'917.3
2018-Jun-21 18:30N 37°56' E 023°37'1 2.8
2018-Jun-21 18:00N 37°57' E 023°38'0 0.0
2018-Jun-21 17:29N 37°57' E 023°38'0 0.0
2018-Jun-21 16:58N 37°57' E 023°38'0 0.0
2018-Jun-21 16:28N 37°57' E 023°38'0 0.0
2018-Jun-21 15:58N 37°57' E 023°38'0 0.0
2018-Jun-21 15:28N 37°57' E 023°38'0 0.0
2018-Jun-21 15:00N 37°57' E 023°38'0 0.0
2018-Jun-21 14:30N 37°57' E 023°38'0 0.0
2018-Jun-21 14:00N 37°57' E 023°38'0 0.0
2018-Jun-21 13:27N 37°57' E 023°38'0 0.0
2018-Jun-21 13:00N 37°57' E 023°38'0 0.0
2018-Jun-21 12:30N 37°57' E 023°38'0 0.0
2018-Jun-21 12:00N 37°57' E 023°38'0 0.0
2018-Jun-21 11:29N 37°57' E 023°38'0 0.0
2018-Jun-21 10:59N 37°57' E 023°38'0 0.0
2018-Jun-21 10:29N 37°57' E 023°38'0 0.0
2018-Jun-21 09:59N 37°57' E 023°38'0 0.0
2018-Jun-21 09:28N 37°57' E 023°38'0 0.0
2018-Jun-21 08:52N 37°57' E 023°38'0 0.0
2018-Jun-21 08:28N 37°57' E 023°38'0 0.0
2018-Jun-21 07:55N 37°57' E 023°38'0 0.0
2018-Jun-21 07:28N 37°57' E 023°38'0 0.0
2018-Jun-21 07:00N 37°57' E 023°38'0 0.0
2018-Jun-21 06:27N 37°57' E 023°38'0 0.0
2018-Jun-21 06:00N 37°57' E 023°38'0 0.0
2018-Jun-21 05:30N 37°57' E 023°38'0 0.0
2018-Jun-21 05:00N 37°57' E 023°38'0 0.0
2018-Jun-21 04:29N 37°57' E 023°38'0 0.0
2018-Jun-21 03:59N 37°57' E 023°38'0 0.2
2018-Jun-21 03:31N 37°57' E 023°38'3 5.4
2018-Jun-21 03:00N 37°54' E 023°38'1020.0
2018-Jun-21 02:30N 37°45' E 023°43'16 0.5
2018-Jun-19 19:57N 37°29' E 023°48'920.0
2018-Jun-19 19:30N 37°38' E 023°43'1020.5
2018-Jun-19 19:00N 37°47' E 023°38'918.4
2018-Jun-19 18:30N 37°56' E 023°37'1 2.5
2018-Jun-19 18:00N 37°57' E 023°38'0 0.0
2018-Jun-19 17:30N 37°57' E 023°38'0 0.0
2018-Jun-19 17:00N 37°57' E 023°38'0 0.0
2018-Jun-19 16:27N 37°57' E 023°38'0 0.0
2018-Jun-19 15:59N 37°57' E 023°38'0 0.0
2018-Jun-19 15:29N 37°57' E 023°38'0 0.0
2018-Jun-19 14:59N 37°57' E 023°38'0 0.0
2018-Jun-19 14:29N 37°57' E 023°38'0 0.0
2018-Jun-19 13:59N 37°57' E 023°38'0 0.0
2018-Jun-19 13:29N 37°57' E 023°38'0 0.0
2018-Jun-19 12:59N 37°57' E 023°38'0 0.0
2018-Jun-19 12:28N 37°57' E 023°38'0 0.0
2018-Jun-19 11:58N 37°57' E 023°38'0 0.0
2018-Jun-19 11:28N 37°57' E 023°38'0 0.0
2018-Jun-19 10:58N 37°57' E 023°38'0 0.0
2018-Jun-19 10:30N 37°57' E 023°38'0 0.0
2018-Jun-19 10:00N 37°57' E 023°38'0 0.0
2018-Jun-19 09:30N 37°57' E 023°38'0 0.0
2018-Jun-19 09:00N 37°57' E 023°38'0 0.0
2018-Jun-19 08:30N 37°57' E 023°38'0 0.0
2018-Jun-19 07:59N 37°57' E 023°38'0 0.0
2018-Jun-19 07:29N 37°57' E 023°38'0 0.0
2018-Jun-19 06:59N 37°57' E 023°38'0 0.0
2018-Jun-19 06:29N 37°57' E 023°38'0 0.0
2018-Jun-19 05:59N 37°57' E 023°38'0 0.0
2018-Jun-19 05:28N 37°57' E 023°38'0 0.0
2018-Jun-19 04:58N 37°57' E 023°38'0 0.0
2018-Jun-19 04:28N 37°57' E 023°38'0 0.0
2018-Jun-19 03:58N 37°57' E 023°38'0 0.0
2018-Jun-19 03:30N 37°57' E 023°38'3 6.6
2018-Jun-19 03:01N 37°53' E 023°38'1019.2
2018-Jun-19 02:30N 37°45' E 023°44'9 0.3
2018-Jun-17 19:19N 37°36' E 023°45'620.1
2018-Jun-17 19:00N 37°42' E 023°41'1019.8
2018-Jun-17 18:30N 37°51' E 023°37'611.5
2018-Jun-17 18:00N 37°57' E 023°38'0 0.0
2018-Jun-17 17:30N 37°57' E 023°38'0 0.0
2018-Jun-17 17:00N 37°57' E 023°38'0 0.0
2018-Jun-17 16:29N 37°57' E 023°38'0 0.0
2018-Jun-17 15:57N 37°57' E 023°38'0 0.0
2018-Jun-17 15:29N 37°57' E 023°38'0 0.0
2018-Jun-17 14:53N 37°57' E 023°38'0 0.0
2018-Jun-17 14:28N 37°57' E 023°38'0 0.0
2018-Jun-17 13:58N 37°57' E 023°38'0 0.0
2018-Jun-17 13:25N 37°57' E 023°38'0 0.0
2018-Jun-17 12:58N 37°57' E 023°38'0 0.0
2018-Jun-17 12:28N 37°57' E 023°38'0 0.0
2018-Jun-17 12:00N 37°57' E 023°38'0 0.0
2018-Jun-17 11:30N 37°57' E 023°38'0 0.0
2018-Jun-17 11:00N 37°57' E 023°38'0 0.0
2018-Jun-17 10:30N 37°57' E 023°38'0 0.0
2018-Jun-17 10:00N 37°57' E 023°38'0 0.0
2018-Jun-17 09:29N 37°57' E 023°38'0 0.0
2018-Jun-17 08:59N 37°57' E 023°38'0 0.0
2018-Jun-17 08:29N 37°57' E 023°38'0 0.0
2018-Jun-17 07:59N 37°57' E 023°38'0 0.0
2018-Jun-17 07:29N 37°57' E 023°38'0 0.0
2018-Jun-17 06:58N 37°57' E 023°38'0 0.0
2018-Jun-17 06:28N 37°57' E 023°38'0 0.0
2018-Jun-17 05:58N 37°57' E 023°38'0 0.0
2018-Jun-17 05:28N 37°57' E 023°38'0 0.0
2018-Jun-17 05:00N 37°57' E 023°38'0 0.0
2018-Jun-17 04:30N 37°57' E 023°38'0 0.0
2018-Jun-17 04:00N 37°57' E 023°38'0 0.1
2018-Jun-17 03:31N 37°57' E 023°38'4 7.8
2018-Jun-17 03:00N 37°53' E 023°39'1020.3
2018-Jun-17 02:30N 37°44' E 023°44'8 0.3
2018-Jun-15 19:32N 37°35' E 023°45'120.6
2018-Jun-15 19:29N 37°36' E 023°44'1020.9
2018-Jun-15 19:00N 37°46' E 023°39'1019.1
2018-Jun-15 18:30N 37°55' E 023°37'2 3.4
2018-Jun-15 17:59N 37°57' E 023°38'0 0.0
2018-Jun-15 17:30N 37°57' E 023°38'0 0.0
2018-Jun-15 16:58N 37°57' E 023°38'0 0.0
2018-Jun-15 16:28N 37°57' E 023°38'0 0.0
2018-Jun-15 15:58N 37°57' E 023°38'0 0.0
2018-Jun-15 15:30N 37°57' E 023°38'  
Track history (hours):
 
Tides and Currents Weather Stations Pressure Air Temp Water Temp Dewpoint Dewpoint Depression Visibility Wind Speed Wind Dir Waves Ship Positions

Festos Palace

Last reported at 2018-Jun-25 15:30 UTC. Time now 2018-Jun-25 15:51 UTC.
Position N 37°57' E 023°38'.

Length 214 m; draft 6.7 m.

Type: Ship. MMSI: 237611000.

Date/timePositionNaut miles runAvg speedWind from/ knotsBaromVisibWave heightAir tempDewpointWater temp
2018-Jun-25 15:30N 37°57' E 023°38'0 0.0
2018-Jun-25 15:00N 37°57' E 023°38'0 0.0
2018-Jun-25 14:30N 37°57' E 023°38'0 0.0
2018-Jun-25 14:01N 37°57' E 023°38'0 0.0
2018-Jun-25 13:29N 37°57' E 023°38'0 0.0
2018-Jun-25 12:59N 37°57' E 023°38'0 0.0
2018-Jun-25 12:31N 37°57' E 023°38'0 0.0
2018-Jun-25 12:00N 37°57' E 023°38'0 0.0
2018-Jun-25 11:31N 37°57' E 023°38'0 0.0
2018-Jun-25 11:01N 37°57' E 023°38'0 0.0
2018-Jun-25 10:30N 37°57' E 023°38'0 0.0
2018-Jun-25 10:00N 37°57' E 023°38'0 0.0
2018-Jun-25 09:29N 37°57' E 023°38'0 0.0
2018-Jun-25 09:01N 37°57' E 023°38'0 0.0
2018-Jun-25 08:31N 37°57' E 023°38'0 0.0
2018-Jun-25 08:01N 37°57' E 023°38'0 0.0
2018-Jun-25 07:31N 37°57' E 023°38'0 0.0
2018-Jun-25 06:50N 37°57' E 023°38'0 0.0
2018-Jun-25 06:31N 37°57' E 023°38'0 0.0
2018-Jun-25 06:01N 37°57' E 023°38'0 0.0
2018-Jun-25 05:31N 37°57' E 023°38'0 0.0
2018-Jun-25 05:00N 37°57' E 023°38'0 0.0
2018-Jun-25 04:30N 37°57' E 023°38'0 0.0
2018-Jun-25 04:00N 37°57' E 023°38'0 0.0
2018-Jun-25 03:30N 37°57' E 023°38'3 7.0
2018-Jun-25 03:00N 37°53' E 023°38'1019.8
2018-Jun-25 02:30N 37°44' E 023°44'16 0.5
2018-Jun-23 19:48N 37°28' E 023°49'719.5
2018-Jun-23 19:27N 37°35' E 023°45'819.2
2018-Jun-23 19:00N 37°42' E 023°41'1019.2
2018-Jun-23 18:30N 37°51' E 023°37'510.6
2018-Jun-23 18:00N 37°57' E 023°38'0 0.0
2018-Jun-23 17:30N 37°57' E 023°38'0 0.0
2018-Jun-23 16:59N 37°57' E 023°38'0 0.0
2018-Jun-23 16:29N 37°57' E 023°38'0 0.0
2018-Jun-23 15:59N 37°57' E 023°38'0 0.0
2018-Jun-23 15:28N 37°57' E 023°38'0 0.0
2018-Jun-23 14:58N 37°57' E 023°38'0 0.0
2018-Jun-23 14:28N 37°57' E 023°38'0 0.0
2018-Jun-23 13:58N 37°57' E 023°38'0 0.0
2018-Jun-23 13:28N 37°57' E 023°38'0 0.0
2018-Jun-23 13:00N 37°57' E 023°38'0 0.0
2018-Jun-23 12:28N 37°57' E 023°38'0 0.0
2018-Jun-23 12:00N 37°57' E 023°38'0 0.0
2018-Jun-23 11:30N 37°57' E 023°38'0 0.0
2018-Jun-23 11:00N 37°57' E 023°38'0 0.0
2018-Jun-23 10:30N 37°57' E 023°38'0 0.0
2018-Jun-23 09:59N 37°57' E 023°38'0 0.0
2018-Jun-23 09:29N 37°57' E 023°38'0 0.0
2018-Jun-23 08:59N 37°57' E 023°38'0 0.0
2018-Jun-23 08:29N 37°57' E 023°38'0 0.0
2018-Jun-23 07:58N 37°57' E 023°38'0 0.0
2018-Jun-23 07:28N 37°57' E 023°38'0 0.0
2018-Jun-23 06:58N 37°57' E 023°38'0 0.0
2018-Jun-23 06:25N 37°57' E 023°38'0 0.0
2018-Jun-23 05:58N 37°57' E 023°38'0 0.0
2018-Jun-23 05:30N 37°57' E 023°38'0 0.0
2018-Jun-23 05:00N 37°57' E 023°38'0 0.0
2018-Jun-23 04:27N 37°57' E 023°38'0 0.0
2018-Jun-23 04:00N 37°57' E 023°38'0 0.2
2018-Jun-23 03:30N 37°57' E 023°38'4 8.7
2018-Jun-23 03:00N 37°52' E 023°39'1020.0
2018-Jun-23 02:30N 37°43' E 023°44'42 1.5
2018-Jun-21 21:24N 37°03' E 024°02'1020.4
2018-Jun-21 20:54N 37°12' E 023°57'820.3
2018-Jun-21 20:30N 37°20' E 023°53'1020.1
2018-Jun-21 20:01N 37°29' E 023°48'1019.9
2018-Jun-21 19:30N 37°38' E 023°43'1019.9
2018-Jun-21 19:01N 37°47' E 023°37'917.3
2018-Jun-21 18:30N 37°56' E 023°37'1 2.8
2018-Jun-21 18:00N 37°57' E 023°38'0 0.0
2018-Jun-21 17:29N 37°57' E 023°38'0 0.0
2018-Jun-21 16:58N 37°57' E 023°38'0 0.0
2018-Jun-21 16:28N 37°57' E 023°38'0 0.0
2018-Jun-21 15:58N 37°57' E 023°38'0 0.0
2018-Jun-21 15:28N 37°57' E 023°38'0 0.0
2018-Jun-21 15:00N 37°57' E 023°38'0 0.0
2018-Jun-21 14:30N 37°57' E 023°38'0 0.0
2018-Jun-21 14:00N 37°57' E 023°38'0 0.0
2018-Jun-21 13:27N 37°57' E 023°38'0 0.0
2018-Jun-21 13:00N 37°57' E 023°38'0 0.0
2018-Jun-21 12:30N 37°57' E 023°38'0 0.0
2018-Jun-21 12:00N 37°57' E 023°38'0 0.0
2018-Jun-21 11:29N 37°57' E 023°38'0 0.0
2018-Jun-21 10:59N 37°57' E 023°38'0 0.0
2018-Jun-21 10:29N 37°57' E 023°38'0 0.0
2018-Jun-21 09:59N 37°57' E 023°38'0 0.0
2018-Jun-21 09:28N 37°57' E 023°38'0 0.0
2018-Jun-21 08:52N 37°57' E 023°38'0 0.0
2018-Jun-21 08:28N 37°57' E 023°38'0 0.0
2018-Jun-21 07:55N 37°57' E 023°38'0 0.0
2018-Jun-21 07:28N 37°57' E 023°38'0 0.0
2018-Jun-21 07:00N 37°57' E 023°38'0 0.0
2018-Jun-21 06:27N 37°57' E 023°38'0 0.0
2018-Jun-21 06:00N 37°57' E 023°38'0 0.0
2018-Jun-21 05:30N 37°57' E 023°38'0 0.0
2018-Jun-21 05:00N 37°57' E 023°38'0 0.0
2018-Jun-21 04:29N 37°57' E 023°38'0 0.0
2018-Jun-21 03:59N 37°57' E 023°38'0 0.2
2018-Jun-21 03:31N 37°57' E 023°38'3 5.4
2018-Jun-21 03:00N 37°54' E 023°38'1020.0
2018-Jun-21 02:30N 37°45' E 023°43'16 0.5
2018-Jun-19 19:57N 37°29' E 023°48'920.0
2018-Jun-19 19:30N 37°38' E 023°43'1020.5
2018-Jun-19 19:00N 37°47' E 023°38'918.4
2018-Jun-19 18:30N 37°56' E 023°37'1 2.5
2018-Jun-19 18:00N 37°57' E 023°38'0 0.0
2018-Jun-19 17:30N 37°57' E 023°38'0 0.0
2018-Jun-19 17:00N 37°57' E 023°38'0 0.0
2018-Jun-19 16:27N 37°57' E 023°38'0 0.0
2018-Jun-19 15:59N 37°57' E 023°38'0 0.0
2018-Jun-19 15:29N 37°57' E 023°38'0 0.0
2018-Jun-19 14:59N 37°57' E 023°38'0 0.0
2018-Jun-19 14:29N 37°57' E 023°38'0 0.0
2018-Jun-19 13:59N 37°57' E 023°38'0 0.0
2018-Jun-19 13:29N 37°57' E 023°38'0 0.0
2018-Jun-19 12:59N 37°57' E 023°38'0 0.0
2018-Jun-19 12:28N 37°57' E 023°38'0 0.0
2018-Jun-19 11:58N 37°57' E 023°38'0 0.0
2018-Jun-19 11:28N 37°57' E 023°38'0 0.0
2018-Jun-19 10:58N 37°57' E 023°38'0 0.0
2018-Jun-19 10:30N 37°57' E 023°38'0 0.0
2018-Jun-19 10:00N 37°57' E 023°38'0 0.0
2018-Jun-19 09:30N 37°57' E 023°38'0 0.0
2018-Jun-19 09:00N 37°57' E 023°38'0 0.0
2018-Jun-19 08:30N 37°57' E 023°38'0 0.0
2018-Jun-19 07:59N 37°57' E 023°38'0 0.0
2018-Jun-19 07:29N 37°57' E 023°38'0 0.0
2018-Jun-19 06:59N 37°57' E 023°38'0 0.0
2018-Jun-19 06:29N 37°57' E 023°38'0 0.0
2018-Jun-19 05:59N 37°57' E 023°38'0 0.0
2018-Jun-19 05:28N 37°57' E 023°38'0 0.0
2018-Jun-19 04:58N 37°57' E 023°38'0 0.0
2018-Jun-19 04:28N 37°57' E 023°38'0 0.0
2018-Jun-19 03:58N 37°57' E 023°38'0 0.0
2018-Jun-19 03:30N 37°57' E 023°38'3 6.6
2018-Jun-19 03:01N 37°53' E 023°38'1019.2
2018-Jun-19 02:30N 37°45' E 023°44'9 0.3
2018-Jun-17 19:19N 37°36' E 023°45'620.1
2018-Jun-17 19:00N 37°42' E 023°41'1019.8
2018-Jun-17 18:30N 37°51' E 023°37'611.5
2018-Jun-17 18:00N 37°57' E 023°38'0 0.0
2018-Jun-17 17:30N 37°57' E 023°38'0 0.0
2018-Jun-17 17:00N 37°57' E 023°38'0 0.0
2018-Jun-17 16:29N 37°57' E 023°38'0 0.0
2018-Jun-17 15:57N 37°57' E 023°38'0 0.0
2018-Jun-17 15:29N 37°57' E 023°38'0 0.0
2018-Jun-17 14:53N 37°57' E 023°38'0 0.0
2018-Jun-17 14:28N 37°57' E 023°38'0 0.0
2018-Jun-17 13:58N 37°57' E 023°38'0 0.0
2018-Jun-17 13:25N 37°57' E 023°38'0 0.0
2018-Jun-17 12:58N 37°57' E 023°38'0 0.0
2018-Jun-17 12:28N 37°57' E 023°38'0 0.0
2018-Jun-17 12:00N 37°57' E 023°38'0 0.0
2018-Jun-17 11:30N 37°57' E 023°38'0 0.0
2018-Jun-17 11:00N 37°57' E 023°38'0 0.0
2018-Jun-17 10:30N 37°57' E 023°38'0 0.0
2018-Jun-17 10:00N 37°57' E 023°38'0 0.0
2018-Jun-17 09:29N 37°57' E 023°38'0 0.0
2018-Jun-17 08:59N 37°57' E 023°38'0 0.0
2018-Jun-17 08:29N 37°57' E 023°38'0 0.0
2018-Jun-17 07:59N 37°57' E 023°38'0 0.0
2018-Jun-17 07:29N 37°57' E 023°38'0 0.0
2018-Jun-17 06:58N 37°57' E 023°38'0 0.0
2018-Jun-17 06:28N 37°57' E 023°38'0 0.0
2018-Jun-17 05:58N 37°57' E 023°38'0 0.0
2018-Jun-17 05:28N 37°57' E 023°38'0 0.0
2018-Jun-17 05:00N 37°57' E 023°38'0 0.0
2018-Jun-17 04:30N 37°57' E 023°38'0 0.0
2018-Jun-17 04:00N 37°57' E 023°38'0 0.1
2018-Jun-17 03:31N 37°57' E 023°38'4 7.8
2018-Jun-17 03:00N 37°53' E 023°39'1020.3
2018-Jun-17 02:30N 37°44' E 023°44'8 0.3
2018-Jun-15 19:32N 37°35' E 023°45'120.6
2018-Jun-15 19:29N 37°36' E 023°44'1020.9
2018-Jun-15 19:00N 37°46' E 023°39'1019.1
2018-Jun-15 18:30N 37°55' E 023°37'2 3.4
2018-Jun-15 17:59N 37°57' E 023°38'0 0.0
2018-Jun-15 17:30N 37°57' E 023°38'0 0.0
2018-Jun-15 16:58N 37°57' E 023°38'0 0.0
2018-Jun-15 16:28N 37°57' E 023°38'0 0.0
2018-Jun-15 15:58N 37°57' E 023°38'0 0.0
2018-Jun-15 15:30N 37°57' E 023°38'  

Dump ship's entire track history